Spangle, Washington
Current Conditions -  °F | °C
As of 8:53 PM on Saturday 25 Oct 2014 (Local Time) from KGEG Reporting Station
Overcast Overcast  
Wind Chill: 58°   Ceiling: 8000
Heat Index: 58°   Visibility: 10mi
Dew Point: 44°   Wind: 23mph
Humidity: 60%   Direction: 190°S
Pressure: 29.53"   Gusts: 35mph
Location:  47.43°N, 117.38°W
Report Text: KGEG 260353Z 19020G30KT 10SM SCT065 BKN080 OVC100 14/07 A2953 RMK AO2 PK WND 19030/0353 RAB0258E29 SLP995 P0000 T01440067
Loading
Personal Weather Stations






























Interactive Weather Map
Tropical Storm Tracking
New forecast layout! Learn more

10-Day Weather Forecast

Advertisements
Track Severe Weather on mobile